Time;durP1;ratioP1;P1;durP2;ratioP2;P2;SDS_P1;SDS_P2;PMS_P1;PMS_P2;Temp;Humidity;BMP_temperature;BMP_pressure;BME280_temperature;BME280_humidity;BME280_pressure;Samples;Min_cycle;Max_cycle;Signal;HPM_P1;HPM_P2
2021/09/12 00:01:14;;;;;;;4.00;3.70;;;20.60;99.90;;;;;;5075724;28;20226;-76
2021/09/12 00:03:43;;;;;;;3.70;3.40;;;20.60;99.90;;;;;;5077709;28;20240;-78
2021/09/12 00:06:10;;;;;;;4.00;3.70;;;20.50;99.90;;;;;;5073745;28;20221;-77
2021/09/12 00:08:37;;;;;;;3.78;3.47;;;20.50;99.90;;;;;;5075392;28;20283;-76
2021/09/12 00:11:04;;;;;;;4.13;3.83;;;20.50;99.90;;;;;;5074019;28;20228;-79
2021/09/12 00:13:31;;;;;;;4.32;3.90;;;20.50;99.90;;;;;;5075817;28;20233;-77
2021/09/12 00:15:58;;;;;;;4.28;3.85;;;20.50;99.90;;;;;;5076314;28;20237;-77
2021/09/12 00:18:25;;;;;;;3.88;3.58;;;20.50;99.90;;;;;;5073164;28;20214;-77
2021/09/12 00:20:54;;;;;;;4.30;3.90;;;20.50;99.90;;;;;;5072650;28;20221;-78
2021/09/12 00:23:21;;;;;;;4.43;3.50;;;20.40;99.90;;;;;;5073134;28;20237;-77
2021/09/12 00:25:48;;;;;;;3.58;3.28;;;20.40;99.90;;;;;;5080226;28;20594;-77
2021/09/12 00:28:15;;;;;;;4.43;4.03;;;20.40;99.90;;;;;;5072281;28;20229;-77
2021/09/12 00:30:42;;;;;;;4.10;3.80;;;20.40;99.90;;;;;;5074907;28;20217;-76
2021/09/12 00:33:09;;;;;;;3.97;3.67;;;20.30;99.90;;;;;;5078222;28;20955;-77
2021/09/12 00:35:36;;;;;;;4.10;3.80;;;20.30;99.90;;;;;;5077430;28;20240;-78
2021/09/12 00:38:05;;;;;;;4.38;4.07;;;20.30;99.90;;;;;;5080678;28;20225;-77
2021/09/12 00:40:32;;;;;;;4.30;4.00;;;20.30;99.90;;;;;;5078265;28;20282;-78
2021/09/12 00:42:59;;;;;;;4.10;3.80;;;20.30;99.90;;;;;;5075218;28;20294;-77
2021/09/12 00:45:26;;;;;;;4.30;3.90;;;20.20;99.90;;;;;;5074162;28;20218;-78
2021/09/12 00:47:53;;;;;;;4.30;4.00;;;20.20;99.90;;;;;;5077043;28;20232;-77
2021/09/12 00:50:21;;;;;;;4.07;3.78;;;20.20;99.90;;;;;;5088563;28;20727;-78
2021/09/12 00:52:50;;;;;;;4.18;3.88;;;20.20;99.90;;;;;;5077202;28;20217;-79
2021/09/12 00:55:18;;;;;;;4.13;3.83;;;20.20;99.90;;;;;;5080196;28;20251;-77
2021/09/12 00:57:47;;;;;;;3.78;3.47;;;20.20;99.90;;;;;;5079315;28;20309;-77
2021/09/12 01:00:16;;;;;;;4.25;3.95;;;20.10;99.90;;;;;;5080941;28;20797;-77
2021/09/12 01:02:43;;;;;;;3.58;3.38;;;20.10;99.90;;;;;;5076841;28;20229;-76
2021/09/12 01:05:12;;;;;;;4.25;3.85;;;20.10;99.90;;;;;;5072369;28;20399;-77
2021/09/12 01:07:40;;;;;;;4.10;3.80;;;20.10;99.90;;;;;;5074207;28;20274;-77
2021/09/12 01:10:08;;;;;;;3.97;3.67;;;20.00;99.90;;;;;;5075116;28;20753;-77
2021/09/12 01:12:37;;;;;;;4.68;3.83;;;20.00;99.90;;;;;;5080333;28;20234;-77
2021/09/12 01:15:06;;;;;;;4.15;3.85;;;20.00;99.90;;;;;;5072120;28;20216;-77
2021/09/12 01:17:33;;;;;;;4.70;4.30;;;20.00;99.90;;;;;;5073854;28;20590;-77
2021/09/12 01:20:00;;;;;;;4.05;3.78;;;19.90;99.90;;;;;;5071103;28;20221;-77
2021/09/12 01:22:29;;;;;;;3.80;3.50;;;19.90;99.90;;;;;;5076426;28;20275;-77
2021/09/12 01:24:57;;;;;;;3.95;3.65;;;19.90;99.90;;;;;;5075630;28;20222;-77
2021/09/12 01:27:24;;;;;;;4.18;3.88;;;19.90;99.90;;;;;;5077476;28;20225;-77
2021/09/12 01:29:51;;;;;;;4.03;3.72;;;19.90;99.90;;;;;;5072888;28;20245;-78
2021/09/12 01:32:23;;;;;;;3.95;3.65;;;19.90;99.90;;;;;;5076432;28;20275;-78
2021/09/12 01:34:50;;;;;;;4.95;3.53;;;19.80;99.90;;;;;;5073349;28;20240;-77
2021/09/12 01:37:17;;;;;;;4.80;3.75;;;19.80;99.90;;;;;;5075807;28;20290;-77
2021/09/12 01:39:44;;;;;;;4.38;3.97;;;19.80;99.90;;;;;;5072431;28;20218;-77
2021/09/12 01:42:13;;;;;;;4.82;4.38;;;19.80;99.90;;;;;;5084144;28;20224;-78
2021/09/12 01:44:46;;;;;;;4.05;3.75;;;19.80;99.90;;;;;;5079272;28;20274;-77
2021/09/12 01:47:13;;;;;;;4.43;4.03;;;19.80;99.90;;;;;;5072365;28;20229;-77
2021/09/12 01:49:40;;;;;;;4.40;4.10;;;19.80;99.90;;;;;;5074363;28;20217;-77
2021/09/12 01:52:10;;;;;;;4.28;3.97;;;19.80;99.90;;;;;;5073647;28;20221;-77
2021/09/12 01:54:37;;;;;;;4.03;3.70;;;19.80;99.90;;;;;;5077211;28;20221;-77
2021/09/12 01:57:05;;;;;;;3.80;3.50;;;19.80;99.90;;;;;;5076844;28;20699;-77
2021/09/12 01:59:33;;;;;;;4.00;3.70;;;19.70;99.90;;;;;;5075599;28;20860;-77
2021/09/12 02:02:00;;;;;;;4.18;3.88;;;19.70;99.90;;;;;;5075984;28;20232;-77
2021/09/12 02:04:27;;;;;;;4.30;3.90;;;19.60;99.90;;;;;;5076742;28;20296;-77
2021/09/12 02:06:54;;;;;;;4.55;4.15;;;19.60;99.90;;;;;;5078158;28;22216;-77
2021/09/12 02:09:23;;;;;;;4.82;4.40;;;19.60;99.90;;;;;;5081042;28;20232;-77
2021/09/12 02:11:52;;;;;;;4.82;4.43;;;19.60;99.90;;;;;;5081030;28;20225;-77
2021/09/12 02:14:19;;;;;;;4.60;4.20;;;19.60;99.90;;;;;;5079713;28;20278;-78
2021/09/12 02:16:47;;;;;;;5.00;4.53;;;19.60;99.90;;;;;;5076923;28;20768;-77
2021/09/12 02:19:14;;;;;;;4.40;4.10;;;19.50;99.90;;;;;;5072834;28;20270;-77
2021/09/12 02:21:41;;;;;;;4.80;4.40;;;19.50;99.90;;;;;;5076061;28;20341;-77
2021/09/12 02:24:08;;;;;;;4.30;3.90;;;19.50;99.90;;;;;;5072750;28;20723;-77
2021/09/12 02:26:35;;;;;;;5.05;4.65;;;19.50;99.90;;;;;;5075043;28;20934;-77
2021/09/12 02:29:02;;;;;;;4.68;4.28;;;19.40;99.90;;;;;;5078153;28;20249;-77
2021/09/12 02:31:29;;;;;;;4.95;4.45;;;19.40;99.90;;;;;;5074304;28;20221;-76
2021/09/12 02:33:58;;;;;;;4.80;4.40;;;19.30;99.90;;;;;;5076904;28;20641;-76
2021/09/12 02:36:25;;;;;;;4.68;4.30;;;19.30;99.90;;;;;;5089020;28;20237;-78
2021/09/12 02:38:52;;;;;;;4.63;4.22;;;19.20;99.90;;;;;;5077975;28;20287;-77
2021/09/12 02:41:19;;;;;;;4.68;4.32;;;19.20;99.90;;;;;;5074199;28;20221;-77
2021/09/12 02:43:47;;;;;;;4.68;4.28;;;19.20;99.90;;;;;;5073251;28;20644;-77
2021/09/12 02:46:14;;;;;;;4.15;3.85;;;19.10;99.90;;;;;;5076961;28;20267;-78
2021/09/12 02:48:41;;;;;;;4.70;4.30;;;19.10;99.90;;;;;;5076281;28;20228;-78
2021/09/12 02:51:09;;;;;;;5.00;4.60;;;19.10;99.90;;;;;;5070582;28;20229;-78
2021/09/12 02:53:36;;;;;;;4.43;4.13;;;19.00;99.90;;;;;;5076631;28;20213;-77
2021/09/12 02:56:03;;;;;;;5.03;4.63;;;19.00;99.90;;;;;;5077000;28;20780;-77
2021/09/12 02:58:30;;;;;;;4.90;4.50;;;19.00;99.90;;;;;;5074732;28;20277;-78
2021/09/12 03:00:57;;;;;;;4.88;4.47;;;19.00;99.90;;;;;;5080273;28;20290;-77
2021/09/12 03:03:24;;;;;;;4.65;4.25;;;18.90;99.90;;;;;;5074524;28;20225;-78
2021/09/12 03:05:51;;;;;;;7.25;4.63;;;18.90;99.90;;;;;;5075169;28;20638;-77
2021/09/12 03:08:20;;;;;;;4.82;4.43;;;18.90;99.90;;;;;;5072903;28;20313;-77
2021/09/12 03:10:47;;;;;;;4.80;4.40;;;18.90;99.90;;;;;;5076893;28;20282;-75
2021/09/12 03:13:15;;;;;;;4.78;4.38;;;18.90;99.90;;;;;;5074975;28;20221;-78
2021/09/12 03:15:42;;;;;;;4.55;4.25;;;18.90;99.90;;;;;;5072416;28;20382;-78
2021/09/12 03:18:09;;;;;;;4.82;4.43;;;18.90;99.90;;;;;;5078020;28;20279;-77
2021/09/12 03:20:36;;;;;;;4.82;4.45;;;18.90;99.90;;;;;;5073264;28;20221;-77
2021/09/12 03:23:04;;;;;;;4.97;4.57;;;18.80;99.90;;;;;;5073781;28;20251;-77
2021/09/12 03:25:33;;;;;;;4.90;4.50;;;18.80;99.90;;;;;;5076539;28;20311;-77
2021/09/12 03:28:00;;;;;;;4.50;4.10;;;18.70;99.90;;;;;;5069636;28;20325;-77
2021/09/12 03:30:27;;;;;;;3.97;3.67;;;18.70;99.90;;;;;;5081745;28;20218;-78
2021/09/12 03:32:54;;;;;;;4.68;4.28;;;18.70;99.90;;;;;;5080357;28;20225;-77
2021/09/12 03:35:21;;;;;;;4.28;3.97;;;18.70;99.90;;;;;;5076919;28;20237;-77
2021/09/12 03:37:48;;;;;;;4.90;4.00;;;18.70;99.90;;;;;;5073569;28;20282;-77
2021/09/12 03:40:15;;;;;;;4.45;4.15;;;18.60;99.90;;;;;;5075659;28;20693;-77
2021/09/12 03:42:44;;;;;;;4.35;4.05;;;18.60;99.90;;;;;;5074251;28;21197;-77
2021/09/12 03:45:11;;;;;;;4.20;3.90;;;18.60;99.90;;;;;;5075058;28;20228;-77
2021/09/12 03:47:38;;;;;;;4.18;3.88;;;18.60;99.90;;;;;;5073470;28;21109;-78
2021/09/12 03:50:06;;;;;;;4.50;4.20;;;18.60;99.90;;;;;;5072690;28;20314;-77
2021/09/12 03:52:33;;;;;;;4.20;3.90;;;18.60;99.90;;;;;;5074355;28;20294;-77
2021/09/12 03:55:00;;;;;;;4.25;3.95;;;18.60;99.90;;;;;;5075020;28;20764;-78
2021/09/12 03:57:27;;;;;;;4.15;3.85;;;18.60;99.90;;;;;;5080299;28;20248;-77
2021/09/12 03:59:55;;;;;;;4.53;4.18;;;18.60;99.90;;;;;;5077557;28;20221;-77
2021/09/12 04:02:22;;;;;;;4.15;3.85;;;18.50;99.90;;;;;;5076545;28;20283;-77
2021/09/12 04:04:50;;;;;;;3.88;3.58;;;18.50;99.90;;;;;;5077464;28;20256;-78
2021/09/12 04:07:17;;;;;;;4.13;3.83;;;18.50;99.90;;;;;;5075355;28;22244;-77
2021/09/12 04:09:44;;;;;;;4.47;4.18;;;18.40;99.90;;;;;;5075302;28;20221;-77
2021/09/12 04:12:11;;;;;;;4.03;3.72;;;18.40;99.90;;;;;;5081677;28;20278;-79
2021/09/12 04:14:38;;;;;;;4.47;4.07;;;18.40;99.90;;;;;;5078233;28;20640;-77
2021/09/12 04:17:06;;;;;;;4.03;3.72;;;18.40;99.90;;;;;;5076264;28;20290;-77
2021/09/12 04:19:34;;;;;;;3.88;3.58;;;18.30;99.90;;;;;;5073206;28;20761;-77
2021/09/12 04:22:01;;;;;;;4.18;3.88;;;18.30;99.90;;;;;;5072507;28;20315;-77
2021/09/12 04:24:28;;;;;;;4.57;4.10;;;18.30;99.90;;;;;;5089239;28;21813;-78
2021/09/12 04:26:55;;;;;;;3.60;3.30;;;18.30;99.90;;;;;;5078641;28;20233;-78
2021/09/12 04:29:23;;;;;;;3.92;3.63;;;18.30;99.90;;;;;;5075852;28;20225;-77
2021/09/12 04:31:50;;;;;;;3.58;3.35;;;18.30;99.90;;;;;;5076390;28;20278;-78
2021/09/12 04:34:18;;;;;;;3.80;3.50;;;18.30;99.90;;;;;;5079731;28;20229;-78
2021/09/12 04:36:45;;;;;;;4.10;3.80;;;18.30;99.90;;;;;;5075753;28;20242;-77
2021/09/12 04:39:13;;;;;;;3.70;3.40;;;18.30;99.90;;;;;;5074702;28;20286;-77
2021/09/12 04:41:40;;;;;;;3.67;3.38;;;18.20;99.90;;;;;;5074528;28;20927;-77
2021/09/12 04:44:07;;;;;;;4.28;3.88;;;18.20;99.90;;;;;;5075351;28;20735;-77
2021/09/12 04:46:34;;;;;;;3.60;3.35;;;18.20;99.90;;;;;;5073979;28;20217;-77
2021/09/12 04:49:01;;;;;;;4.05;3.75;;;18.20;99.90;;;;;;5077385;28;20634;-78
2021/09/12 04:51:29;;;;;;;3.80;3.50;;;18.10;99.90;;;;;;5081824;28;20584;-77
2021/09/12 04:53:56;;;;;;;4.38;3.97;;;18.10;99.90;;;;;;5077657;28;20240;-76
2021/09/12 04:56:23;;;;;;;4.20;3.80;;;18.20;99.90;;;;;;5074685;28;20282;-77
2021/09/12 04:58:51;;;;;;;4.70;4.10;;;18.20;99.90;;;;;;5076297;28;20238;-77
2021/09/12 05:01:18;;;;;;;4.30;4.00;;;18.20;99.90;;;;;;5073932;28;20248;-78
2021/09/12 05:03:45;;;;;;;3.80;3.50;;;18.20;99.90;;;;;;5073468;28;20234;-77
2021/09/12 05:06:12;;;;;;;4.30;4.00;;;18.10;99.90;;;;;;5071498;28;20230;-77
2021/09/12 05:08:41;;;;;;;4.05;3.70;;;18.10;99.90;;;;;;5073624;28;20232;-77
2021/09/12 05:11:08;;;;;;;3.95;3.65;;;18.10;99.90;;;;;;5074004;28;20859;-77
2021/09/12 05:13:36;;;;;;;4.15;3.83;;;18.10;99.90;;;;;;5074908;28;20290;-77
2021/09/12 05:16:04;;;;;;;3.95;3.60;;;18.10;99.90;;;;;;5074937;28;20278;-77
2021/09/12 05:18:31;;;;;;;3.70;3.40;;;18.10;99.90;;;;;;5084735;28;20227;-77
2021/09/12 05:20:58;;;;;;;3.60;3.30;;;18.10;99.90;;;;;;5079836;28;20257;-77
2021/09/12 05:23:26;;;;;;;3.83;3.53;;;18.10;99.90;;;;;;5073667;28;20283;-77
2021/09/12 05:25:54;;;;;;;3.40;3.15;;;18.10;99.90;;;;;;5077642;28;20221;-76
2021/09/12 05:28:22;;;;;;;4.20;3.90;;;18.20;99.90;;;;;;5078364;28;20862;-76
2021/09/12 05:30:49;;;;;;;3.80;3.50;;;18.40;99.90;;;;;;5080056;28;20221;-78
2021/09/12 05:33:16;;;;;;;3.55;3.25;;;18.60;99.90;;;;;;5078802;28;20221;-77
2021/09/12 05:35:43;;;;;;;4.00;3.58;;;18.90;99.90;;;;;;5072223;28;20319;-77
2021/09/12 05:38:10;;;;;;;3.88;3.53;;;19.10;99.90;;;;;;5076964;28;20253;-77
2021/09/12 05:40:37;;;;;;;3.85;3.55;;;19.30;99.90;;;;;;5078443;28;20217;-77
2021/09/12 05:43:06;;;;;;;4.50;3.85;;;19.60;99.90;;;;;;5077175;28;20278;-78
2021/09/12 05:45:33;;;;;;;3.92;3.63;;;19.80;99.90;;;;;;5075223;28;20283;-77
2021/09/12 05:48:00;;;;;;;4.05;3.70;;;20.10;99.90;;;;;;5077247;28;20222;-77
2021/09/12 05:50:27;;;;;;;4.28;3.97;;;20.30;99.90;;;;;;5080152;28;20777;-78
2021/09/12 05:52:54;;;;;;;4.03;3.72;;;20.40;99.90;;;;;;5081924;28;20279;-77
2021/09/12 05:55:21;;;;;;;4.20;3.90;;;20.40;99.90;;;;;;5079231;28;20697;-77
2021/09/12 05:57:48;;;;;;;3.92;3.63;;;20.50;99.90;;;;;;5075286;28;20736;-78
2021/09/12 06:00:17;;;;;;;3.42;3.22;;;20.50;99.90;;;;;;5077350;28;20237;-79
2021/09/12 06:02:44;;;;;;;3.63;3.33;;;20.80;99.90;;;;;;5083083;28;20233;-77
2021/09/12 06:05:11;;;;;;;3.72;3.42;;;21.00;99.90;;;;;;5083243;28;20232;-78
2021/09/12 06:07:38;;;;;;;4.43;4.00;;;21.30;99.90;;;;;;5074882;28;21009;-77
2021/09/12 06:10:06;;;;;;;3.78;3.47;;;21.40;99.90;;;;;;5078045;28;20226;-77
2021/09/12 06:12:33;;;;;;;3.53;3.30;;;21.50;99.90;;;;;;5089807;28;20230;-79
2021/09/12 06:15:00;;;;;;;4.07;3.65;;;21.70;99.90;;;;;;5078313;28;20668;-77
2021/09/12 06:17:29;;;;;;;3.83;3.53;;;21.90;99.90;;;;;;5079275;28;20712;-77
2021/09/12 06:19:56;;;;;;;3.75;3.40;;;22.00;99.90;;;;;;5077694;28;20221;-78
2021/09/12 06:22:23;;;;;;;4.38;4.03;;;22.00;99.90;;;;;;5075548;28;20291;-77
2021/09/12 06:24:50;;;;;;;4.10;3.80;;;22.00;99.90;;;;;;5077380;28;20703;-77
2021/09/12 06:27:17;;;;;;;5.20;4.13;;;21.90;99.90;;;;;;5077349;28;20271;-78
2021/09/12 06:29:44;;;;;;;4.60;4.20;;;22.00;99.90;;;;;;5077717;28;20226;-77
2021/09/12 06:32:11;;;;;;;4.00;3.67;;;22.10;99.90;;;;;;5077101;28;20652;-78
2021/09/12 06:34:39;;;;;;;3.90;3.60;;;22.20;99.90;;;;;;5074850;28;20803;-78
2021/09/12 06:37:07;;;;;;;4.45;3.97;;;22.50;99.90;;;;;;5071336;28;20233;-77
2021/09/12 06:39:34;;;;;;;4.47;4.07;;;22.70;99.90;;;;;;5076958;28;20210;-77
2021/09/12 06:42:01;;;;;;;4.03;3.53;;;22.80;99.90;;;;;;5076910;28;20240;-77
2021/09/12 06:44:28;;;;;;;4.28;3.97;;;22.70;99.90;;;;;;5076780;28;20260;-77
2021/09/12 06:46:55;;;;;;;4.13;3.83;;;22.70;99.90;;;;;;5071873;28;20222;-78
2021/09/12 06:49:22;;;;;;;6.22;4.28;;;22.80;99.90;;;;;;5079067;28;20279;-77
2021/09/12 06:51:51;;;;;;;4.88;4.32;;;22.90;99.90;;;;;;5080857;28;20214;-78
2021/09/12 06:54:18;;;;;;;4.20;3.90;;;22.90;99.90;;;;;;5075356;28;20582;-78
2021/09/12 06:56:45;;;;;;;4.25;3.95;;;23.00;99.90;;;;;;5075772;28;20230;-78
2021/09/12 06:59:12;;;;;;;4.25;3.92;;;23.20;99.90;;;;;;5075890;28;20224;-77
2021/09/12 07:01:39;;;;;;;4.30;4.00;;;23.40;99.90;;;;;;5076020;28;20912;-77
2021/09/12 07:04:06;;;;;;;4.13;3.83;;;23.50;99.90;;;;;;5079176;28;20637;-78
2021/09/12 07:06:33;;;;;;;4.70;4.30;;;23.70;99.90;;;;;;5088101;28;20221;-78
2021/09/12 07:09:01;;;;;;;3.75;3.45;;;23.50;99.90;;;;;;5082188;28;20225;-77
2021/09/12 07:11:28;;;;;;;4.28;3.88;;;23.50;99.90;;;;;;5080375;28;20606;-78
2021/09/12 07:13:55;;;;;;;4.32;3.97;;;23.40;99.90;;;;;;5078043;28;20712;-77
2021/09/12 07:16:22;;;;;;;4.40;4.00;;;23.60;99.90;;;;;;5077028;28;20213;-78
2021/09/12 07:18:49;;;;;;;5.32;4.30;;;23.50;99.90;;;;;;5077107;28;20654;-79
2021/09/12 07:21:16;;;;;;;4.65;4.30;;;23.60;99.90;;;;;;5074664;28;20275;-78
2021/09/12 07:23:43;;;;;;;4.72;4.43;;;23.50;99.90;;;;;;5079201;28;20255;-77
2021/09/12 07:26:12;;;;;;;4.90;4.50;;;23.50;99.90;;;;;;5075257;28;20230;-78
2021/09/12 07:28:39;;;;;;;4.50;4.20;;;23.50;99.90;;;;;;5073234;28;20230;-78
2021/09/12 07:31:06;;;;;;;4.80;4.40;;;23.40;99.90;;;;;;5076680;28;20225;-78
2021/09/12 07:33:33;;;;;;;4.57;3.95;;;23.20;99.90;;;;;;5076470;28;20631;-78
2021/09/12 07:36:00;;;;;;;3.90;3.60;;;23.30;99.90;;;;;;5075920;28;20244;-77
2021/09/12 07:38:27;;;;;;;4.25;3.95;;;23.50;99.90;;;;;;5073662;28;20283;-78
2021/09/12 07:40:54;;;;;;;4.00;3.70;;;23.80;99.90;;;;;;5076685;28;20224;-78
2021/09/12 07:43:23;;;;;;;4.47;4.07;;;24.20;99.90;;;;;;5081904;28;20229;-78
2021/09/12 07:45:50;;;;;;;4.10;3.80;;;24.20;99.90;;;;;;5080395;28;20233;-78
2021/09/12 07:48:17;;;;;;;4.10;3.80;;;24.10;99.90;;;;;;5079842;28;20232;-78
2021/09/12 07:50:46;;;;;;;4.10;3.80;;;24.20;99.90;;;;;;5081303;28;20298;-78
2021/09/12 07:53:13;;;;;;;4.50;4.20;;;24.30;99.90;;;;;;5081391;28;20217;-79
2021/09/12 07:55:40;;;;;;;4.07;3.78;;;24.50;99.90;;;;;;5076818;28;20240;-78
2021/09/12 07:58:08;;;;;;;3.92;3.63;;;24.50;99.90;;;;;;5075133;28;20249;-77
2021/09/12 08:00:37;;;;;;;4.65;4.18;;;24.50;99.90;;;;;;5082467;28;20220;-78
2021/09/12 08:03:04;;;;;;;4.68;4.28;;;24.50;99.90;;;;;;5077084;28;20220;-78
2021/09/12 08:05:31;;;;;;;4.13;3.83;;;24.50;99.90;;;;;;5077516;28;20268;-77
2021/09/12 08:07:58;;;;;;;4.50;4.10;;;24.50;99.90;;;;;;5074349;28;20237;-77
2021/09/12 08:10:25;;;;;;;4.25;3.85;;;24.60;99.90;;;;;;5075378;28;20217;-77
2021/09/12 08:12:52;;;;;;;3.58;3.28;;;24.60;99.90;;;;;;5084728;28;20707;-77
2021/09/12 08:15:19;;;;;;;4.30;4.00;;;24.60;99.90;;;;;;5075805;28;20225;-79
2021/09/12 08:17:48;;;;;;;4.38;4.07;;;24.70;99.90;;;;;;5078095;28;20225;-79
2021/09/12 08:20:15;;;;;;;4.40;4.00;;;24.90;99.90;;;;;;5078054;28;20223;-78
2021/09/12 08:22:42;;;;;;;3.35;3.15;;;25.00;99.90;;;;;;5076767;28;20213;-79
2021/09/12 08:25:10;;;;;;;3.50;3.20;;;25.20;99.90;;;;;;5073436;28;21325;-78
2021/09/12 08:27:37;;;;;;;3.97;3.67;;;25.40;99.90;;;;;;5080446;28;20230;-77
2021/09/12 08:30:05;;;;;;;4.03;3.60;;;25.50;99.90;;;;;;5078782;28;20221;-78
2021/09/12 08:32:32;;;;;;;4.32;4.00;;;25.70;99.90;;;;;;5078161;28;20718;-77
2021/09/12 08:35:00;;;;;;;3.88;3.58;;;25.90;99.90;;;;;;5070738;28;20234;-78
2021/09/12 08:37:27;;;;;;;4.28;3.88;;;25.90;99.90;;;;;;5073147;28;20249;-78
2021/09/12 08:39:54;;;;;;;4.22;3.90;;;26.00;99.90;;;;;;5076185;28;20214;-79
2021/09/12 08:42:23;;;;;;;3.95;3.65;;;25.90;99.90;;;;;;5073978;28;20229;-78
2021/09/12 08:44:51;;;;;;;3.83;3.50;;;25.70;99.90;;;;;;5070275;28;20457;-78
2021/09/12 08:47:19;;;;;;;3.90;3.60;;;25.90;99.90;;;;;;5073235;28;20234;-78
2021/09/12 08:49:47;;;;;;;4.30;3.90;;;26.10;99.90;;;;;;5068353;28;20220;-77
2021/09/12 08:52:16;;;;;;;4.10;3.72;;;26.30;99.90;;;;;;5079610;28;20714;-78
2021/09/12 08:54:43;;;;;;;3.85;3.55;;;26.50;99.90;;;;;;5076000;28;20221;-78
2021/09/12 08:57:10;;;;;;;4.00;3.70;;;26.60;99.90;;;;;;5069201;28;20434;-76
2021/09/12 08:59:38;;;;;;;3.95;3.65;;;26.50;99.90;;;;;;5071912;28;20221;-76
2021/09/12 09:02:06;;;;;;;4.28;3.88;;;26.50;99.90;;;;;;5075053;28;20210;-78
2021/09/12 09:04:35;;;;;;;4.13;3.83;;;26.40;99.90;;;;;;5074721;28;20679;-77
2021/09/12 09:07:06;;;;;;;3.95;3.65;;;26.20;99.90;;;;;;5078021;28;20229;-77
2021/09/12 09:09:46;;;;;;;4.10;3.70;;;26.30;99.90;;;;;;5080044;28;20601;-77
2021/09/12 09:12:28;;;;;;;4.47;4.07;;;26.20;99.90;;;;;;5076415;28;20360;-77
2021/09/12 09:15:08;;;;;;;5.82;3.95;;;26.00;99.90;;;;;;5070911;28;20609;-77
2021/09/12 09:17:40;;;;;;;4.53;4.15;;;26.10;99.90;;;;;;5076609;28;20687;-76
2021/09/12 09:20:08;;;;;;;4.38;3.97;;;26.20;99.90;;;;;;5078439;28;20221;-76
2021/09/12 09:22:38;;;;;;;4.53;4.15;;;26.20;99.90;;;;;;5072038;28;20703;-78
2021/09/12 09:25:15;;;;;;;4.03;3.70;;;26.40;99.90;;;;;;5078266;28;20680;-76
2021/09/12 09:27:58;;;;;;;4.10;3.80;;;26.60;99.90;;;;;;5079524;28;20221;-77
2021/09/12 09:30:25;;;;;;;4.40;4.00;;;26.50;99.90;;;;;;5077207;28;20221;-77
2021/09/12 09:32:53;;;;;;;4.78;4.38;;;26.40;99.90;;;;;;5077053;28;20220;-77
2021/09/12 09:35:24;;;;;;;4.80;4.03;;;26.30;99.90;;;;;;5081246;28;20227;-77
2021/09/12 09:37:53;;;;;;;4.20;3.80;;;26.40;99.90;;;;;;5074657;28;20221;-77
2021/09/12 09:40:21;;;;;;;4.53;3.65;;;26.60;99.90;;;;;;5074334;28;20221;-77
2021/09/12 09:42:48;;;;;;;4.40;4.00;;;26.70;99.90;;;;;;5078828;28;20222;-78
2021/09/12 09:45:17;;;;;;;4.40;4.00;;;26.70;99.90;;;;;;5072930;28;20237;-78
2021/09/12 09:47:46;;;;;;;4.72;4.32;;;26.70;99.90;;;;;;5081806;28;20213;-78
2021/09/12 09:50:16;;;;;;;4.38;3.97;;;27.00;99.90;;;;;;5080500;28;20217;-77
2021/09/12 09:52:47;;;;;;;3.50;3.30;;;27.00;99.90;;;;;;5074231;28;20229;-77
2021/09/12 09:55:15;;;;;;;3.95;3.65;;;27.00;99.90;;;;;;5078790;28;20229;-79
2021/09/12 09:57:45;;;;;;;5.15;3.83;;;27.00;99.90;;;;;;5079653;28;20221;-78
2021/09/12 10:00:14;;;;;;;3.88;3.58;;;27.30;99.90;;;;;;5077393;28;20779;-78
2021/09/12 10:02:42;;;;;;;4.03;3.72;;;27.60;99.90;;;;;;5079958;28;20759;-77
2021/09/12 10:05:11;;;;;;;3.80;3.50;;;27.80;99.90;;;;;;5077723;28;20364;-77
2021/09/12 10:07:41;;;;;;;4.18;3.78;;;27.70;99.90;;;;;;5075890;28;20217;-77
2021/09/12 10:10:11;;;;;;;4.30;3.90;;;27.80;99.90;;;;;;5084284;28;20228;-76
2021/09/12 10:12:44;;;;;;;3.80;3.42;;;27.60;99.90;;;;;;5077406;28;20226;-78
2021/09/12 10:15:19;;;;;;;3.95;3.55;;;27.70;99.90;;;;;;5075810;28;20512;-77
2021/09/12 10:17:47;;;;;;;3.78;3.47;;;27.80;99.90;;;;;;5077678;28;20228;-77
2021/09/12 10:20:16;;;;;;;3.80;3.50;;;27.80;99.90;;;;;;5071939;28;20695;-77
2021/09/12 10:22:53;;;;;;;3.88;3.58;;;27.80;99.90;;;;;;5077951;28;20209;-77
2021/09/12 10:25:21;;;;;;;3.92;3.60;;;27.90;99.90;;;;;;5072472;28;20229;-76
2021/09/12 10:27:50;;;;;;;4.30;3.95;;;28.10;99.90;;;;;;5073711;28;20221;-76
2021/09/12 10:30:27;;;;;;;3.65;3.33;;;28.40;99.90;;;;;;5071502;28;20229;-77
2021/09/12 10:33:11;;;;;;;3.50;3.20;;;28.50;99.90;;;;;;5075701;28;20232;-77
2021/09/12 10:35:40;;;;;;;3.70;3.40;;;28.30;99.90;;;;;;5070518;28;20631;-76
2021/09/12 10:38:11;;;;;;;4.10;3.80;;;28.10;99.90;;;;;;5075244;28;20226;-76
2021/09/12 10:41:13;;;;;;;3.90;3.60;;;28.10;99.90;;;;;;5075961;28;21638;-76
2021/09/12 10:43:52;;;;;;;4.03;3.63;;;28.20;99.90;;;;;;5076474;28;20244;-77
2021/09/12 10:46:33;;;;;;;3.85;3.55;;;28.30;99.90;;;;;;5072650;28;20221;-75
2021/09/12 10:49:11;;;;;;;3.60;3.40;;;28.60;99.90;;;;;;5076067;28;20229;-77
2021/09/12 10:51:40;;;;;;;3.40;3.10;;;28.70;99.90;;;;;;5072022;28;20348;-76
2021/09/12 10:54:07;;;;;;;3.47;3.17;;;28.70;99.90;;;;;;5076583;28;20225;-77
2021/09/12 10:56:36;;;;;;;3.70;3.45;;;28.60;99.90;;;;;;5075795;28;20232;-77
2021/09/12 10:59:07;;;;;;;3.40;3.15;;;28.50;99.90;;;;;;5074491;28;20229;-77
2021/09/12 11:01:39;;;;;;;3.67;3.40;;;28.50;99.90;;;;;;5075657;28;20243;-76
2021/09/12 11:04:06;;;;;;;3.30;3.10;;;28.50;99.90;;;;;;5078248;28;20233;-77
2021/09/12 11:06:35;;;;;;;3.72;3.42;;;28.40;99.90;;;;;;5072753;28;20687;-77
2021/09/12 11:09:04;;;;;;;4.38;3.20;;;28.50;99.90;;;;;;5072503;28;20810;-76
2021/09/12 11:11:31;;;;;;;4.07;3.20;;;28.50;99.90;;;;;;5076398;28;20221;-77
2021/09/12 11:14:00;;;;;;;3.55;3.25;;;28.60;99.90;;;;;;5073141;28;20242;-76
2021/09/12 11:16:27;;;;;;;3.80;3.50;;;28.60;99.90;;;;;;5072872;28;20225;-77
2021/09/12 11:18:58;;;;;;;3.45;3.15;;;28.60;99.90;;;;;;5079314;28;20217;-77
2021/09/12 11:21:31;;;;;;;3.33;3.13;;;28.60;99.90;;;;;;5072987;28;20225;-77
2021/09/12 11:24:01;;;;;;;3.65;3.38;;;28.80;99.90;;;;;;5071188;28;20238;-75
2021/09/12 11:26:37;;;;;;;3.47;3.17;;;28.80;99.90;;;;;;5056930;28;20217;-77
2021/09/12 11:29:06;;;;;;;4.22;3.25;;;29.10;99.90;;;;;;5078155;28;20228;-77
2021/09/12 11:31:35;;;;;;;3.97;3.67;;;29.00;99.90;;;;;;5068375;28;20221;-76
2021/09/12 11:34:04;;;;;;;3.17;2.97;;;28.80;99.90;;;;;;5076852;28;20229;-77
2021/09/12 11:36:48;;;;;;;3.33;3.13;;;28.80;99.90;;;;;;5073953;28;20222;-76
2021/09/12 11:39:19;;;;;;;3.53;3.28;;;28.70;99.90;;;;;;5072552;28;20245;-77
2021/09/12 11:41:46;;;;;;;3.40;3.10;;;28.90;99.90;;;;;;5071782;28;20730;-76
2021/09/12 11:44:14;;;;;;;3.75;3.45;;;29.20;99.90;;;;;;5075848;28;20310;-77
2021/09/12 11:46:50;;;;;;;3.92;3.40;;;29.50;99.90;;;;;;5074853;28;20221;-76
2021/09/12 11:49:19;;;;;;;3.70;3.42;;;29.50;99.90;;;;;;5073348;28;20232;-76
2021/09/12 11:51:48;;;;;;;5.50;3.50;;;29.50;99.90;;;;;;5072661;28;20228;-78
2021/09/12 11:54:19;;;;;;;3.40;3.20;;;29.50;99.90;;;;;;5077473;28;20225;-77
2021/09/12 11:56:56;;;;;;;3.72;3.42;;;29.50;99.90;;;;;;5073880;28;20234;-77
2021/09/12 11:59:24;;;;;;;3.70;3.50;;;29.30;99.90;;;;;;5073873;28;20228;-76
2021/09/12 12:01:54;;;;;;;3.95;3.20;;;29.30;99.90;;;;;;5070977;28;20230;-76
2021/09/12 12:04:23;;;;;;;3.45;3.15;;;29.20;99.90;;;;;;5079512;28;20248;-75
2021/09/12 12:06:54;;;;;;;3.40;3.15;;;28.90;99.90;;;;;;5073041;28;20358;-77
2021/09/12 12:09:27;;;;;;;3.88;3.58;;;28.70;99.90;;;;;;5073362;28;20306;-78
2021/09/12 12:12:03;;;;;;;3.85;3.55;;;28.70;99.90;;;;;;5076112;28;20229;-78
2021/09/12 12:14:31;;;;;;;3.10;2.90;;;28.80;99.90;;;;;;5078967;28;20263;-78
2021/09/12 12:17:04;;;;;;;3.92;3.00;;;29.00;99.90;;;;;;5071481;28;20224;-77
2021/09/12 12:19:36;;;;;;;3.70;3.08;;;29.20;99.90;;;;;;5077111;28;20561;-77
2021/09/12 12:22:07;;;;;;;3.53;3.22;;;29.10;99.90;;;;;;5071895;28;20225;-77
2021/09/12 12:24:36;;;;;;;3.97;3.30;;;29.20;99.90;;;;;;5072765;28;20229;-77
2021/09/12 12:27:08;;;;;;;3.97;3.67;;;29.50;99.90;;;;;;5075459;28;20301;-77
2021/09/12 12:29:36;;;;;;;4.85;3.47;;;29.60;99.90;;;;;;5074190;28;20294;-76
2021/09/12 12:32:06;;;;;;;3.45;3.25;;;29.70;99.90;;;;;;5073011;28;20221;-77
2021/09/12 12:34:39;;;;;;;3.30;3.08;;;29.80;99.90;;;;;;5073797;28;20229;-77
2021/09/12 12:37:07;;;;;;;3.80;3.50;;;29.90;99.90;;;;;;5074004;28;20217;-78
2021/09/12 12:39:34;;;;;;;3.80;3.50;;;30.10;99.90;;;;;;5075397;28;20263;-77
2021/09/12 12:42:02;;;;;;;3.53;3.22;;;30.00;99.90;;;;;;5071946;28;20237;-78
2021/09/12 12:44:29;;;;;;;3.65;3.30;;;29.80;99.90;;;;;;5071741;28;20229;-77
2021/09/12 12:46:57;;;;;;;3.60;3.30;;;29.80;99.90;;;;;;5072706;28;20221;-77
2021/09/12 12:49:26;;;;;;;4.45;3.60;;;29.70;99.90;;;;;;5070703;28;20236;-77
2021/09/12 12:52:09;;;;;;;4.38;3.90;;;29.50;99.90;;;;;;5074468;28;20244;-75
2021/09/12 12:54:38;;;;;;;3.80;3.50;;;29.40;98.60;;;;;;5072500;28;20225;-77